sensor_id;sensor_type;location;lat;lon;timestamp;pressure;altitude;pressure_sealevel;temperature;humidity
12624;BME280;6377;42.836;23.998;2023-09-08T00:01:29;96239.84;;;19.40;96.34
12624;BME280;6377;42.836;23.998;2023-09-08T00:03:56;96234.09;;;19.30;97.84
12624;BME280;6377;42.836;23.998;2023-09-08T00:06:23;96243.13;;;19.35;96.40
12624;BME280;6377;42.836;23.998;2023-09-08T00:08:51;96242.00;;;19.25;95.44
12624;BME280;6377;42.836;23.998;2023-09-08T00:11:19;96237.00;;;19.03;98.18
12624;BME280;6377;42.836;23.998;2023-09-08T00:13:46;96231.69;;;18.90;100.00
12624;BME280;6377;42.836;23.998;2023-09-08T00:16:15;96101.75;;;18.06;99.69
12624;BME280;6377;42.836;23.998;2023-09-08T00:18:42;96239.09;;;18.64;97.87
12624;BME280;6377;42.836;23.998;2023-09-08T00:21:09;96236.75;;;18.29;98.81
12624;BME280;6377;42.836;23.998;2023-09-08T00:23:37;96243.78;;;18.24;100.00
12624;BME280;6377;42.836;23.998;2023-09-08T00:26:04;96236.78;;;18.23;100.00
12624;BME280;6377;42.836;23.998;2023-09-08T00:28:33;96230.22;;;18.12;100.00
12624;BME280;6377;42.836;23.998;2023-09-08T00:31:00;96232.47;;;18.15;100.00
12624;BME280;6377;42.836;23.998;2023-09-08T00:33:27;96226.69;;;18.25;100.00
12624;BME280;6377;42.836;23.998;2023-09-08T00:35:55;96223.78;;;18.26;100.00
12624;BME280;6377;42.836;23.998;2023-09-08T00:38:23;96232.38;;;18.41;100.00
12624;BME280;6377;42.836;23.998;2023-09-08T00:43:58;96241.41;;;18.47;100.00
12624;BME280;6377;42.836;23.998;2023-09-08T00:46:25;96223.31;;;18.49;100.00
12624;BME280;6377;42.836;23.998;2023-09-08T00:48:53;96245.06;;;18.66;100.00
12624;BME280;6377;42.836;23.998;2023-09-08T00:51:21;96245.63;;;18.74;100.00
12624;BME280;6377;42.836;23.998;2023-09-08T00:53:49;96244.38;;;18.77;99.73
12624;BME280;6377;42.836;23.998;2023-09-08T00:56:16;96244.38;;;18.77;100.00
12624;BME280;6377;42.836;23.998;2023-09-08T00:58:44;96245.63;;;18.74;99.24
12624;BME280;6377;42.836;23.998;2023-09-08T01:01:12;96234.91;;;18.74;100.00
12624;BME280;6377;42.836;23.998;2023-09-08T01:03:40;96234.88;;;18.81;99.24
12624;BME280;6377;42.836;23.998;2023-09-08T01:06:07;96230.91;;;18.90;97.53
12624;BME280;6377;42.836;23.998;2023-09-08T01:08:34;96227.03;;;18.79;93.40
12624;BME280;6377;42.836;23.998;2023-09-08T01:11:02;96221.84;;;18.53;93.18
12624;BME280;6377;42.836;23.998;2023-09-08T01:13:29;96176.34;;;18.02;96.87
12624;BME280;6377;42.836;23.998;2023-09-08T01:15:57;96226.13;;;18.10;100.00
12624;BME280;6377;42.836;23.998;2023-09-08T01:18:25;96230.22;;;18.19;100.00
12624;BME280;6377;42.836;23.998;2023-09-08T01:21:05;96231.78;;;18.33;100.00
12624;BME280;6377;42.836;23.998;2023-09-08T01:23:53;96223.91;;;18.44;100.00
12624;BME280;6377;42.836;23.998;2023-09-08T01:26:27;96233.59;;;18.45;98.84
12624;BME280;6377;42.836;23.998;2023-09-08T01:28:58;96215.47;;;18.41;100.00
12624;BME280;6377;42.836;23.998;2023-09-08T01:31:26;96224.50;;;18.46;100.00
12624;BME280;6377;42.836;23.998;2023-09-08T01:33:54;96224.09;;;18.50;99.89
12624;BME280;6377;42.836;23.998;2023-09-08T01:36:21;96231.13;;;18.51;99.41
12624;BME280;6377;42.836;23.998;2023-09-08T01:38:49;96235.41;;;18.58;99.60
12624;BME280;6377;42.836;23.998;2023-09-08T01:41:16;96225.72;;;18.64;97.25
12624;BME280;6377;42.836;23.998;2023-09-08T01:43:44;96233.19;;;18.55;97.51
12624;BME280;6377;42.836;23.998;2023-09-08T01:46:12;96231.16;;;18.37;93.46
12624;BME280;6377;42.836;23.998;2023-09-08T01:48:39;96222.38;;;18.17;100.00
12624;BME280;6377;42.836;23.998;2023-09-08T01:51:06;96222.59;;;18.16;100.00
12624;BME280;6377;42.836;23.998;2023-09-08T01:53:33;96226.66;;;18.31;100.00
12624;BME280;6377;42.836;23.998;2023-09-08T01:56:01;96229.69;;;18.41;99.58
12624;BME280;6377;42.836;23.998;2023-09-08T02:01:46;96238.72;;;18.47;97.63
12624;BME280;6377;42.836;23.998;2023-09-08T02:04:14;96237.50;;;18.50;93.92
12624;BME280;6377;42.836;23.998;2023-09-08T02:06:41;96240.25;;;18.30;95.91
12624;BME280;6377;42.836;23.998;2023-09-08T02:09:08;96233.91;;;18.11;95.60
12624;BME280;6377;42.836;23.998;2023-09-08T02:11:36;96237.69;;;17.97;99.64
12624;BME280;6377;42.836;23.998;2023-09-08T02:14:03;96234.84;;;17.79;98.41
12624;BME280;6377;42.836;23.998;2023-09-08T02:16:30;96199.50;;;17.57;100.00
12624;BME280;6377;42.836;23.998;2023-09-08T02:18:58;96240.59;;;17.89;100.00
12624;BME280;6377;42.836;23.998;2023-09-08T02:21:26;96235.22;;;18.02;100.00
12624;BME280;6377;42.836;23.998;2023-09-08T02:23:53;96239.50;;;18.10;99.57
12624;BME280;6377;42.836;23.998;2023-09-08T02:26:20;96229.66;;;17.97;91.56
12624;BME280;6377;42.836;23.998;2023-09-08T02:28:47;96222.03;;;17.94;99.94
12624;BME280;6377;42.836;23.998;2023-09-08T02:31:14;96224.28;;;18.04;99.49
12624;BME280;6377;42.836;23.998;2023-09-08T02:33:41;96238.69;;;18.09;98.14
12624;BME280;6377;42.836;23.998;2023-09-08T02:36:10;96231.97;;;17.87;88.65
12624;BME280;6377;42.836;23.998;2023-09-08T02:38:37;96231.56;;;17.77;99.89
12624;BME280;6377;42.836;23.998;2023-09-08T02:41:04;96235.47;;;17.81;99.21
12624;BME280;6377;42.836;23.998;2023-09-08T02:43:31;96242.06;;;17.72;98.87
12624;BME280;6377;42.836;23.998;2023-09-08T02:45:58;96238.38;;;17.66;93.49
12624;BME280;6377;42.836;23.998;2023-09-08T02:48:25;96241.25;;;17.38;92.20
12624;BME280;6377;42.836;23.998;2023-09-08T02:50:52;96235.91;;;17.25;100.00
12624;BME280;6377;42.836;23.998;2023-09-08T02:53:23;96233.88;;;17.41;100.00
12624;BME280;6377;42.836;23.998;2023-09-08T02:55:54;96230.56;;;17.52;99.91
12624;BME280;6377;42.836;23.998;2023-09-08T02:58:21;96232.22;;;17.59;100.00
12624;BME280;6377;42.836;23.998;2023-09-08T03:00:48;96235.69;;;17.73;99.32
12624;BME280;6377;42.836;23.998;2023-09-08T03:03:17;96240.63;;;17.76;96.47
12624;BME280;6377;42.836;23.998;2023-09-08T03:05:44;96233.41;;;17.76;98.13
12624;BME280;6377;42.836;23.998;2023-09-08T03:08:11;96234.03;;;17.78;97.13
12624;BME280;6377;42.836;23.998;2023-09-08T03:10:40;96216.56;;;17.63;97.92
12624;BME280;6377;42.836;23.998;2023-09-08T03:13:07;96239.75;;;17.88;97.83
12624;BME280;6377;42.836;23.998;2023-09-08T03:15:34;96237.25;;;18.00;96.85
12624;BME280;6377;42.836;23.998;2023-09-08T03:18:01;96236.84;;;18.03;92.89
12624;BME280;6377;42.836;23.998;2023-09-08T03:20:29;96231.47;;;18.10;94.00
12624;BME280;6377;42.836;23.998;2023-09-08T03:22:56;96233.31;;;18.16;93.71
12624;BME280;6377;42.836;23.998;2023-09-08T03:25:24;96230.81;;;18.21;92.21
12624;BME280;6377;42.836;23.998;2023-09-08T03:27:53;96236.16;;;18.21;91.19
12624;BME280;6377;42.836;23.998;2023-09-08T03:30:20;96230.63;;;18.22;92.79
12624;BME280;6377;42.836;23.998;2023-09-08T03:32:47;96234.28;;;18.28;91.43
12624;BME280;6377;42.836;23.998;2023-09-08T03:35:14;96236.34;;;18.26;91.32
12624;BME280;6377;42.836;23.998;2023-09-08T03:37:41;96232.63;;;18.27;90.59
12624;BME280;6377;42.836;23.998;2023-09-08T03:40:09;96232.88;;;18.25;90.90
12624;BME280;6377;42.836;23.998;2023-09-08T03:42:36;96232.81;;;18.32;90.12
12624;BME280;6377;42.836;23.998;2023-09-08T03:45:06;96234.91;;;18.30;89.86
12624;BME280;6377;42.836;23.998;2023-09-08T03:47:33;96242.31;;;18.34;90.18
12624;BME280;6377;42.836;23.998;2023-09-08T03:50:00;96238.41;;;18.30;88.87
12624;BME280;6377;42.836;23.998;2023-09-08T03:52:27;96240.91;;;18.25;87.85
12624;BME280;6377;42.836;23.998;2023-09-08T03:54:54;96236.00;;;18.03;85.03
12624;BME280;6377;42.836;23.998;2023-09-08T03:57:21;96245.75;;;17.84;93.12
12624;BME280;6377;42.836;23.998;2023-09-08T03:59:48;96243.09;;;17.84;89.89
12624;BME280;6377;42.836;23.998;2023-09-08T04:02:17;96092.44;;;16.60;91.94
12624;BME280;6377;42.836;23.998;2023-09-08T04:04:44;96249.91;;;17.60;95.67
12624;BME280;6377;42.836;23.998;2023-09-08T04:07:11;96240.03;;;17.54;94.91
12624;BME280;6377;42.836;23.998;2023-09-08T04:09:38;96173.41;;;16.87;87.46
12624;BME280;6377;42.836;23.998;2023-09-08T04:12:05;96252.38;;;17.16;99.17
12624;BME280;6377;42.836;23.998;2023-09-08T04:14:34;96247.22;;;17.08;91.89
12624;BME280;6377;42.836;23.998;2023-09-08T04:17:02;96251.53;;;17.15;100.00
12624;BME280;6377;42.836;23.998;2023-09-08T04:19:30;96241.06;;;17.14;98.63
12624;BME280;6377;42.836;23.998;2023-09-08T04:21:57;96173.19;;;16.89;98.50
12624;BME280;6377;42.836;23.998;2023-09-08T04:24:26;96257.50;;;17.50;95.78
12624;BME280;6377;42.836;23.998;2023-09-08T04:26:55;96254.22;;;17.61;95.18
12624;BME280;6377;42.836;23.998;2023-09-08T04:29:22;96256.28;;;17.72;93.45
12624;BME280;6377;42.836;23.998;2023-09-08T04:31:49;96211.63;;;17.53;91.96
12624;BME280;6377;42.836;23.998;2023-09-08T04:34:16;96257.91;;;17.86;90.19
12624;BME280;6377;42.836;23.998;2023-09-08T04:36:45;96229.53;;;17.46;92.12
12624;BME280;6377;42.836;23.998;2023-09-08T04:39:12;96256.50;;;17.58;94.20
12624;BME280;6377;42.836;23.998;2023-09-08T04:41:41;96264.91;;;17.61;91.84
12624;BME280;6377;42.836;23.998;2023-09-08T04:44:07;96259.97;;;17.45;94.69
12624;BME280;6377;42.836;23.998;2023-09-08T04:46:35;96245.78;;;17.25;94.97
12624;BME280;6377;42.836;23.998;2023-09-08T04:49:02;96259.56;;;17.28;95.54
12624;BME280;6377;42.836;23.998;2023-09-08T04:51:30;96263.88;;;17.43;95.99
12624;BME280;6377;42.836;23.998;2023-09-08T04:53:59;96271.91;;;17.36;93.19
12624;BME280;6377;42.836;23.998;2023-09-08T04:56:27;96172.78;;;16.85;95.57
12624;BME280;6377;42.836;23.998;2023-09-08T04:58:54;96262.44;;;17.40;93.44
12624;BME280;6377;42.836;23.998;2023-09-08T05:01:23;96253.59;;;17.33;95.79
12624;BME280;6377;42.836;23.998;2023-09-08T05:03:50;96256.66;;;17.50;95.70
12624;BME280;6377;42.836;23.998;2023-09-08T05:06:18;96256.88;;;17.61;94.23
12624;BME280;6377;42.836;23.998;2023-09-08T05:08:45;96195.59;;;17.40;93.20
12624;BME280;6377;42.836;23.998;2023-09-08T05:11:13;96257.66;;;17.88;91.92
12624;BME280;6377;42.836;23.998;2023-09-08T05:13:42;96260.75;;;17.98;90.81
12624;BME280;6377;42.836;23.998;2023-09-08T05:16:09;96160.44;;;17.36;89.58
12624;BME280;6377;42.836;23.998;2023-09-08T05:18:38;96251.72;;;17.92;88.64
12624;BME280;6377;42.836;23.998;2023-09-08T05:21:05;96248.63;;;17.82;89.82
12624;BME280;6377;42.836;23.998;2023-09-08T05:23:32;96219.03;;;17.64;89.75
12624;BME280;6377;42.836;23.998;2023-09-08T05:26:00;96255.22;;;17.86;88.28
12624;BME280;6377;42.836;23.998;2023-09-08T05:28:28;96266.34;;;17.90;90.26
12624;BME280;6377;42.836;23.998;2023-09-08T05:30:55;96252.13;;;17.96;90.12
12624;BME280;6377;42.836;23.998;2023-09-08T05:33:22;96264.03;;;18.00;89.21
12624;BME280;6377;42.836;23.998;2023-09-08T05:35:50;96260.31;;;18.01;89.68
12624;BME280;6377;42.836;23.998;2023-09-08T05:38:17;96260.50;;;18.06;93.35
12624;BME280;6377;42.836;23.998;2023-09-08T05:40:44;96262.59;;;17.98;88.82
12624;BME280;6377;42.836;23.998;2023-09-08T05:43:11;96172.16;;;17.29;88.40
12624;BME280;6377;42.836;23.998;2023-09-08T05:45:43;96260.97;;;17.90;88.78
12624;BME280;6377;42.836;23.998;2023-09-08T05:48:10;96115.44;;;17.07;88.45
12624;BME280;6377;42.836;23.998;2023-09-08T05:50:37;96221.47;;;17.79;88.59
12624;BME280;6377;42.836;23.998;2023-09-08T05:53:04;96255.63;;;17.83;87.67
12624;BME280;6377;42.836;23.998;2023-09-08T05:55:31;96262.59;;;17.91;88.83
12624;BME280;6377;42.836;23.998;2023-09-08T05:57:58;96245.34;;;17.87;88.38
12624;BME280;6377;42.836;23.998;2023-09-08T06:00:25;96254.56;;;18.04;88.42
12624;BME280;6377;42.836;23.998;2023-09-08T06:02:54;96233.56;;;17.95;87.69
12624;BME280;6377;42.836;23.998;2023-09-08T06:05:21;96260.25;;;18.27;86.59
12624;BME280;6377;42.836;23.998;2023-09-08T06:07:48;96259.38;;;18.40;86.19
12624;BME280;6377;42.836;23.998;2023-09-08T06:10:15;96262.66;;;18.49;84.89
12624;BME280;6377;42.836;23.998;2023-09-08T06:12:42;96267.53;;;18.58;84.64
12624;BME280;6377;42.836;23.998;2023-09-08T06:15:10;96191.09;;;18.11;83.82
12624;BME280;6377;42.836;23.998;2023-09-08T06:17:37;96263.25;;;18.44;85.03
12624;BME280;6377;42.836;23.998;2023-09-08T06:20:06;96251.09;;;18.55;85.61
12624;BME280;6377;42.836;23.998;2023-09-08T06:22:34;96255.53;;;18.67;85.57
12624;BME280;6377;42.836;23.998;2023-09-08T06:25:01;96254.13;;;18.65;85.57
12624;BME280;6377;42.836;23.998;2023-09-08T06:27:28;96198.19;;;18.37;85.09
12624;BME280;6377;42.836;23.998;2023-09-08T06:29:55;96253.22;;;18.84;85.14
12624;BME280;6377;42.836;23.998;2023-09-08T06:32:22;96252.94;;;18.92;86.04
12624;BME280;6377;42.836;23.998;2023-09-08T06:34:49;96268.00;;;18.93;84.69
12624;BME280;6377;42.836;23.998;2023-09-08T06:37:18;96249.59;;;18.96;85.10
12624;BME280;6377;42.836;23.998;2023-09-08T06:39:45;96252.69;;;19.00;86.95
12624;BME280;6377;42.836;23.998;2023-09-08T06:42:12;96122.03;;;18.26;86.78
12624;BME280;6377;42.836;23.998;2023-09-08T06:44:39;96250.84;;;18.94;86.36
12624;BME280;6377;42.836;23.998;2023-09-08T06:47:06;96254.22;;;19.14;88.26
12624;BME280;6377;42.836;23.998;2023-09-08T06:49:33;96254.72;;;19.29;86.19
12624;BME280;6377;42.836;23.998;2023-09-08T06:52:00;96250.13;;;19.43;85.01
12624;BME280;6377;42.836;23.998;2023-09-08T06:54:29;96245.47;;;19.56;83.03
12624;BME280;6377;42.836;23.998;2023-09-08T06:56:56;96209.56;;;19.26;82.16
12624;BME280;6377;42.836;23.998;2023-09-08T06:59:23;96260.34;;;19.52;83.79
12624;BME280;6377;42.836;23.998;2023-09-08T07:01:50;96253.41;;;19.70;82.40
12624;BME280;6377;42.836;23.998;2023-09-08T07:04:17;96251.06;;;19.73;81.45
12624;BME280;6377;42.836;23.998;2023-09-08T07:06:44;96249.59;;;19.77;77.07
12624;BME280;6377;42.836;23.998;2023-09-08T07:09:12;96247.00;;;19.89;76.72
12624;BME280;6377;42.836;23.998;2023-09-08T07:11:40;96249.63;;;19.95;76.01
12624;BME280;6377;42.836;23.998;2023-09-08T07:14:07;96245.69;;;19.98;78.52
12624;BME280;6377;42.836;23.998;2023-09-08T07:16:37;96197.94;;;19.82;75.73
12624;BME280;6377;42.836;23.998;2023-09-08T07:19:05;96239.63;;;20.21;76.90
12624;BME280;6377;42.836;23.998;2023-09-08T07:21:32;96245.38;;;20.24;76.42
12624;BME280;6377;42.836;23.998;2023-09-08T07:23:59;96249.25;;;20.46;77.86
12624;BME280;6377;42.836;23.998;2023-09-08T07:26:26;96237.41;;;20.54;76.56
12624;BME280;6377;42.836;23.998;2023-09-08T07:28:54;96235.88;;;20.58;77.10
12624;BME280;6377;42.836;23.998;2023-09-08T07:31:22;96244.56;;;20.60;76.71
12624;BME280;6377;42.836;23.998;2023-09-08T07:33:49;96243.59;;;20.54;75.95
12624;BME280;6377;42.836;23.998;2023-09-08T07:36:16;96241.09;;;20.71;76.22
12624;BME280;6377;42.836;23.998;2023-09-08T07:38:43;96233.81;;;20.90;73.10
12624;BME280;6377;42.836;23.998;2023-09-08T07:41:10;96235.53;;;21.14;72.04
12624;BME280;6377;42.836;23.998;2023-09-08T07:43:37;96241.41;;;21.22;71.21
12624;BME280;6377;42.836;23.998;2023-09-08T07:46:07;96239.56;;;21.46;70.89
12624;BME280;6377;42.836;23.998;2023-09-08T07:48:34;96233.88;;;21.54;71.04
12624;BME280;6377;42.836;23.998;2023-09-08T07:51:01;96198.41;;;21.46;70.33
12624;BME280;6377;42.836;23.998;2023-09-08T07:53:29;96208.56;;;21.67;71.46
12624;BME280;6377;42.836;23.998;2023-09-08T07:55:56;96232.47;;;21.98;69.94
12624;BME280;6377;42.836;23.998;2023-09-08T07:58:23;96226.34;;;22.14;68.36
12624;BME280;6377;42.836;23.998;2023-09-08T08:00:50;96228.34;;;22.19;68.16
12624;BME280;6377;42.836;23.998;2023-09-08T08:03:18;96225.38;;;22.32;68.00
12624;BME280;6377;42.836;23.998;2023-09-08T08:05:45;96223.13;;;22.41;66.38
12624;BME280;6377;42.836;23.998;2023-09-08T08:08:12;96223.13;;;22.41;68.02
12624;BME280;6377;42.836;23.998;2023-09-08T08:10:41;96214.31;;;22.57;66.14
12624;BME280;6377;42.836;23.998;2023-09-08T08:13:08;96218.13;;;22.72;65.33
12624;BME280;6377;42.836;23.998;2023-09-08T08:15:36;96211.78;;;22.78;63.41
12624;BME280;6377;42.836;23.998;2023-09-08T08:18:04;96213.44;;;22.96;61.85
12624;BME280;6377;42.836;23.998;2023-09-08T08:20:33;96179.25;;;22.85;60.31
12624;BME280;6377;42.836;23.998;2023-09-08T08:23:01;96204.84;;;23.27;59.02
12624;BME280;6377;42.836;23.998;2023-09-08T08:25:28;96210.25;;;23.44;58.72
12624;BME280;6377;42.836;23.998;2023-09-08T08:27:55;96196.94;;;23.54;58.92
12624;BME280;6377;42.836;23.998;2023-09-08T08:30:24;96207.88;;;23.64;58.28
12624;BME280;6377;42.836;23.998;2023-09-08T08:32:51;96196.16;;;23.75;57.78
12624;BME280;6377;42.836;23.998;2023-09-08T08:35:19;96204.16;;;23.87;56.29
12624;BME280;6377;42.836;23.998;2023-09-08T08:37:47;96173.03;;;23.63;56.15
12624;BME280;6377;42.836;23.998;2023-09-08T08:40:14;96197.59;;;23.99;55.45
12624;BME280;6377;42.836;23.998;2023-09-08T08:42:42;96180.03;;;24.02;55.94
12624;BME280;6377;42.836;23.998;2023-09-08T08:45:10;96199.25;;;24.22;54.39
12624;BME280;6377;42.836;23.998;2023-09-08T08:47:37;96200.53;;;24.15;54.18
12624;BME280;6377;42.836;23.998;2023-09-08T08:50:08;96160.94;;;24.09;54.17
12624;BME280;6377;42.836;23.998;2023-09-08T08:52:38;96192.16;;;24.38;53.66
12624;BME280;6377;42.836;23.998;2023-09-08T08:55:07;96191.56;;;24.58;53.47
12624;BME280;6377;42.836;23.998;2023-09-08T08:57:36;96184.41;;;24.68;51.65
12624;BME280;6377;42.836;23.998;2023-09-08T09:00:06;96186.50;;;24.83;52.67
12624;BME280;6377;42.836;23.998;2023-09-08T09:02:36;96180.66;;;24.96;50.84
12624;BME280;6377;42.836;23.998;2023-09-08T09:05:04;96179.72;;;25.12;50.67
12624;BME280;6377;42.836;23.998;2023-09-08T09:07:32;96178.75;;;25.23;50.31
12624;BME280;6377;42.836;23.998;2023-09-08T09:10:00;96175.66;;;25.41;50.04
12624;BME280;6377;42.836;23.998;2023-09-08T09:12:29;96167.09;;;25.23;49.33
12624;BME280;6377;42.836;23.998;2023-09-08T09:14:58;96177.53;;;25.09;50.56
12624;BME280;6377;42.836;23.998;2023-09-08T09:17:25;96171.78;;;25.00;50.74
12624;BME280;6377;42.836;23.998;2023-09-08T09:20:12;96162.13;;;25.10;49.12
12624;BME280;6377;42.836;23.998;2023-09-08T09:22:39;96169.56;;;25.24;50.10
12624;BME280;6377;42.836;23.998;2023-09-08T09:25:07;96167.81;;;25.13;51.07
12624;BME280;6377;42.836;23.998;2023-09-08T09:27:36;96168.41;;;25.15;51.37
12624;BME280;6377;42.836;23.998;2023-09-08T09:30:07;96160.28;;;25.15;49.96
12624;BME280;6377;42.836;23.998;2023-09-08T09:32:34;96167.25;;;25.11;49.96
12624;BME280;6377;42.836;23.998;2023-09-08T09:35:02;96169.50;;;25.19;49.95
12624;BME280;6377;42.836;23.998;2023-09-08T09:37:30;96168.22;;;24.95;50.55
12624;BME280;6377;42.836;23.998;2023-09-08T09:39:57;96166.72;;;24.82;50.33
12624;BME280;6377;42.836;23.998;2023-09-08T09:42:24;96161.31;;;24.82;50.06
12624;BME280;6377;42.836;23.998;2023-09-08T09:44:52;96163.16;;;25.03;50.24
12624;BME280;6377;42.836;23.998;2023-09-08T09:47:20;96156.13;;;25.07;50.17
12624;BME280;6377;42.836;23.998;2023-09-08T09:49:48;96153.75;;;25.16;48.73
12624;BME280;6377;42.836;23.998;2023-09-08T09:52:22;96152.72;;;25.22;49.16
12624;BME280;6377;42.836;23.998;2023-09-08T09:54:52;96146.69;;;25.42;48.22
12624;BME280;6377;42.836;23.998;2023-09-08T09:57:21;96146.69;;;25.42;47.09
12624;BME280;6377;42.836;23.998;2023-09-08T09:59:49;96143.28;;;25.56;47.48
12624;BME280;6377;42.836;23.998;2023-09-08T10:02:21;96124.88;;;25.58;47.23
12624;BME280;6377;42.836;23.998;2023-09-08T10:04:48;96147.31;;;25.96;46.07
12624;BME280;6377;42.836;23.998;2023-09-08T10:07:16;96139.19;;;26.01;46.70
12624;BME280;6377;42.836;23.998;2023-09-08T10:09:44;96139.00;;;26.12;47.17
12624;BME280;6377;42.836;23.998;2023-09-08T10:12:13;96138.28;;;26.32;46.88
12624;BME280;6377;42.836;23.998;2023-09-08T10:14:42;96129.34;;;26.37;46.47
12624;BME280;6377;42.836;23.998;2023-09-08T10:17:15;96129.03;;;26.23;44.96
12624;BME280;6377;42.836;23.998;2023-09-08T10:19:45;96121.72;;;26.29;44.73
12624;BME280;6377;42.836;23.998;2023-09-08T10:22:20;96118.91;;;26.03;43.97
12624;BME280;6377;42.836;23.998;2023-09-08T10:24:50;96130.16;;;25.80;45.39
12624;BME280;6377;42.836;23.998;2023-09-08T10:27:17;96090.28;;;25.34;43.95
12624;BME280;6377;42.836;23.998;2023-09-08T10:29:47;96113.34;;;25.78;43.94
12624;BME280;6377;42.836;23.998;2023-09-08T10:32:16;96100.22;;;25.60;42.87
12624;BME280;6377;42.836;23.998;2023-09-08T10:34:45;96117.38;;;25.76;42.99
12624;BME280;6377;42.836;23.998;2023-09-08T10:37:20;96113.75;;;26.07;42.70
12624;BME280;6377;42.836;23.998;2023-09-08T10:39:50;96117.28;;;26.07;41.60
12624;BME280;6377;42.836;23.998;2023-09-08T10:42:22;96106.56;;;26.33;41.69
12624;BME280;6377;42.836;23.998;2023-09-08T10:44:59;96111.72;;;26.34;41.92
12624;BME280;6377;42.836;23.998;2023-09-08T10:47:32;96118.44;;;26.16;41.99
12624;BME280;6377;42.836;23.998;2023-09-08T10:50:03;96110.41;;;26.52;43.29
12624;BME280;6377;42.836;23.998;2023-09-08T10:52:31;96106.41;;;26.90;42.03
12624;BME280;6377;42.836;23.998;2023-09-08T10:55:00;96090.63;;;26.71;42.18
12624;BME280;6377;42.836;23.998;2023-09-08T10:57:28;96107.25;;;27.20;41.47
12624;BME280;6377;42.836;23.998;2023-09-08T11:00:01;96095.19;;;27.92;40.07
12624;BME280;6377;42.836;23.998;2023-09-08T11:02:35;96099.63;;;28.47;39.35
12624;BME280;6377;42.836;23.998;2023-09-08T11:05:07;96099.00;;;28.55;39.69
12624;BME280;6377;42.836;23.998;2023-09-08T11:07:35;96095.94;;;28.72;40.04
12624;BME280;6377;42.836;23.998;2023-09-08T11:10:04;96100.16;;;28.93;39.23
12624;BME280;6377;42.836;23.998;2023-09-08T11:12:31;96065.59;;;28.45;39.22
12624;BME280;6377;42.836;23.998;2023-09-08T11:14:58;96095.28;;;28.41;39.86
12624;BME280;6377;42.836;23.998;2023-09-08T11:17:26;96098.34;;;28.29;40.70
12624;BME280;6377;42.836;23.998;2023-09-08T11:19:54;96096.91;;;28.47;40.21
12624;BME280;6377;42.836;23.998;2023-09-08T11:22:24;96091.84;;;28.74;39.47
12624;BME280;6377;42.836;23.998;2023-09-08T11:24:51;96090.53;;;28.08;39.84
12624;BME280;6377;42.836;23.998;2023-09-08T11:27:20;96094.41;;;27.81;40.27
12624;BME280;6377;42.836;23.998;2023-09-08T11:29:48;96095.03;;;27.43;40.88
12624;BME280;6377;42.836;23.998;2023-09-08T11:32:16;96087.41;;;27.35;40.78
12624;BME280;6377;42.836;23.998;2023-09-08T11:34:43;96081.97;;;27.35;40.64
12624;BME280;6377;42.836;23.998;2023-09-08T11:37:11;96074.66;;;27.46;41.63
12624;BME280;6377;42.836;23.998;2023-09-08T11:39:41;96078.69;;;27.73;40.80
12624;BME280;6377;42.836;23.998;2023-09-08T11:42:11;96079.59;;;28.23;39.26
12624;BME280;6377;42.836;23.998;2023-09-08T11:44:38;96072.56;;;28.61;38.82
12624;BME280;6377;42.836;23.998;2023-09-08T11:47:07;96055.44;;;28.99;37.55
12624;BME280;6377;42.836;23.998;2023-09-08T11:49:35;96063.97;;;29.79;36.62
12624;BME280;6377;42.836;23.998;2023-09-08T11:52:02;96052.94;;;30.55;36.11
12624;BME280;6377;42.836;23.998;2023-09-08T11:54:29;96040.91;;;30.56;34.77
12624;BME280;6377;42.836;23.998;2023-09-08T11:56:58;96062.66;;;30.42;35.87
12624;BME280;6377;42.836;23.998;2023-09-08T11:59:27;96055.66;;;30.55;36.17
12624;BME280;6377;42.836;23.998;2023-09-08T12:01:55;96050.94;;;29.99;35.99
12624;BME280;6377;42.836;23.998;2023-09-08T12:04:22;96050.03;;;29.80;36.47
12624;BME280;6377;42.836;23.998;2023-09-08T12:06:51;96059.94;;;30.00;35.96
12624;BME280;6377;42.836;23.998;2023-09-08T12:09:20;96037.25;;;29.52;36.82
12624;BME280;6377;42.836;23.998;2023-09-08T12:11:48;96050.44;;;28.77;37.48
12624;BME280;6377;42.836;23.998;2023-09-08T12:14:17;96044.69;;;29.13;36.82
12624;BME280;6377;42.836;23.998;2023-09-08T12:16:44;96036.88;;;29.06;36.43
12624;BME280;6377;42.836;23.998;2023-09-08T12:19:29;96040.22;;;28.10;38.26
12624;BME280;6377;42.836;23.998;2023-09-08T12:21:58;96035.56;;;28.16;38.12
12624;BME280;6377;42.836;23.998;2023-09-08T12:24:55;96044.41;;;27.72;39.41
12624;BME280;6377;42.836;23.998;2023-09-08T12:27:24;96037.97;;;27.33;39.11
12624;BME280;6377;42.836;23.998;2023-09-08T12:29:54;96040.19;;;27.11;39.64
12624;BME280;6377;42.836;23.998;2023-09-08T12:32:21;96037.75;;;27.09;39.45
12624;BME280;6377;42.836;23.998;2023-09-08T12:34:49;96038.28;;;27.11;39.64
12624;BME280;6377;42.836;23.998;2023-09-08T12:37:20;96025.47;;;27.52;38.97
12624;BME280;6377;42.836;23.998;2023-09-08T12:39:50;96021.53;;;27.89;38.16
12624;BME280;6377;42.836;23.998;2023-09-08T12:42:21;96016.94;;;28.38;36.71
12624;BME280;6377;42.836;23.998;2023-09-08T12:44:53;96024.66;;;28.60;37.02
12624;BME280;6377;42.836;23.998;2023-09-08T12:47:20;96020.56;;;28.62;37.14
12624;BME280;6377;42.836;23.998;2023-09-08T12:49:47;96011.84;;;28.26;37.47
12624;BME280;6377;42.836;23.998;2023-09-08T12:52:14;96004.38;;;27.93;37.36
12624;BME280;6377;42.836;23.998;2023-09-08T12:54:41;96009.84;;;27.83;38.61
12624;BME280;6377;42.836;23.998;2023-09-08T12:57:08;96005.06;;;28.19;38.88
12624;BME280;6377;42.836;23.998;2023-09-08T12:59:35;96000.13;;;28.70;36.49
12624;BME280;6377;42.836;23.998;2023-09-08T13:02:04;95998.19;;;29.04;36.69
12624;BME280;6377;42.836;23.998;2023-09-08T13:04:31;96000.03;;;29.42;36.87
12624;BME280;6377;42.836;23.998;2023-09-08T13:06:58;95997.88;;;29.63;36.42
12624;BME280;6377;42.836;23.998;2023-09-08T13:09:26;96000.25;;;29.46;35.92
12624;BME280;6377;42.836;23.998;2023-09-08T13:11:54;95996.59;;;29.32;36.34